• Join FlightAware (Why Join?)
  • Login
  • US Flag 
07:22PM EST


 

Airport Tracker/Info


-or-


 

Live Flight TrackerFlight Track Log ✈ SWA1044 ✈ 20-Apr-2013 ✈ KTPA - KBDL

Flight Track Log - Related Links

Times and Time Zones

All times are in EDT time to prevent confusion due to time zone crossing. See the SWA1044 flight status page for this flight to view local times or setup timezone preferences in your user account.

Time Position Orientation Groundspeed Altitude Reporting Facility
EDT Latitude Longitude Course Direction KTS MPH feet Rate Location/Type
03:31PM 28.0333 -82.5333 360° North 202 232 1,800  Level Tampa TRACON
03:33PM 28.1494 -82.5394 357° North 255 293 5,400 2,220 Climbing Jacksonville Center
03:34PM 28.2289 -82.5464 356° North 265 305 7,800 2,400 Climbing Jacksonville Center
03:35PM 28.3081 -82.5553 354° North 278 320 10,200 1,800 Climbing Jacksonville Center
03:36PM 28.4019 -82.5644 355° North 306 352 11,500 1,920 Climbing Jacksonville Center
03:37PM 28.5022 -82.5736 355° North 338 389 14,100 2,760 Climbing Jacksonville Center
03:38PM 28.6044 -82.5806 357° North 359 413 17,100 2,160 Climbing Jacksonville Center
03:39PM 28.6964 -82.5919 354° North 372 428 18,500 1,500 Climbing Jacksonville Center
03:40PM 28.8069 -82.6058 354° North 379 436 20,100 1,680 Climbing Jacksonville Center
03:41PM 28.9197 -82.6222 353° North 397 457 21,900 1,680 Climbing Jacksonville Center
03:42PM 29.0367 -82.6408 352° North 409 471 23,500 1,320 Climbing Jacksonville Center
03:43PM 29.1578 -82.6572 353° North 422 486 24,600 1,380 Climbing Jacksonville Center
03:44PM 29.2831 -82.6736 353° North 435 501 26,300 1,440 Climbing Jacksonville Center
03:45PM 29.4061 -82.6900 353° North 446 513 27,500 1,080 Climbing Jacksonville Center
03:46PM 29.5397 -82.6969 357° North 459 528 28,500 960 Climbing Jacksonville Center
03:47PM 29.6756 -82.6942 North 472 543 29,500 1,260 Climbing Jacksonville Center
03:48PM 29.8092 -82.6939 360° North 478 550 31,100 1,260 Climbing Jacksonville Center
03:49PM 29.9447 -82.6911 North 478 550 32,100 900 Climbing Jacksonville Center
03:50PM 30.0764 -82.6886 North 478 550 33,000 840 Climbing Jacksonville Center
03:51PM 30.2100 -82.6858 North 478 550 33,800 780 Climbing Jacksonville Center
03:52PM 30.3414 -82.6881 359° North 478 550 34,600 600 Climbing Jacksonville Center
03:53PM 30.4753 -82.6853 North 478 550 35,000 180 Climbing Jacksonville Center
03:54PM 30.6108 -82.6392 16° North 485 558 35,000  Level Jacksonville Center
03:55PM 30.7422 -82.5736 23° Northeast 491 565 35,000  Level Jacksonville Center
03:56PM 30.8714 -82.5103 23° Northeast 497 572 35,000 -60 Level Jacksonville Center
03:57PM 31.0028 -82.4467 23° Northeast 503 579 34,900  Descending Jacksonville Center
03:58PM 31.1361 -82.3828 22° Northeast 508 585 35,000  Climbing Jacksonville Center
03:59PM 31.2653 -82.3214 22° Northeast 508 585 35,000  Level Jacksonville Center
04:00PM 31.4092 -82.2525 22° Northeast 508 585 35,000  Level Jacksonville Center
04:01PM 31.5425 -82.1831 24° Northeast 508 585 35,000  Level Jacksonville Center
04:02PM 31.6653 -82.1211 23° Northeast 518 596 35,000  Level Jacksonville Center
04:03PM 31.8150 -82.0467 23° Northeast 519 597 35,000  Level Jacksonville Center
04:04PM 31.9522 -81.9769 23° Northeast 524 603 35,000  Level Jacksonville Center
04:05PM 32.0603 -81.8850 36° Northeast 528 608 35,000  Level Jacksonville Center
04:06PM 32.1864 -81.7608 40° Northeast 533 613 35,000  Level Jacksonville Center
04:07PM 32.3044 -81.6439 40° Northeast 543 625 35,000  Level Jacksonville Center
04:08PM 32.4097 -81.5417 39° Northeast 548 631 35,000  Level Jacksonville Center
04:09PM 32.5336 -81.4142 41° Northeast 543 625 35,000  Level Jacksonville Center
04:10PM 32.6472 -81.3011 40° Northeast 543 625 35,000  Level Jacksonville Center
04:11PM 32.7500 -81.1931 41° Northeast 543 625 35,000  Level Jacksonville Center
04:12PM 32.8742 -81.0994 32° Northeast 538 619 35,000  Level Jacksonville Center
04:13PM 32.9786 -80.9758 45° Northeast 533 613 35,000  Level Jacksonville Center
04:14PM 33.0578 -80.8281 57° Northeast 520 598 35,000  Level Jacksonville Center
04:15PM 33.1386 -80.6747 58° Northeast 531 611 35,000  Level Jacksonville Center
04:16PM 33.2217 -80.5289 56° Northeast 531 611 35,000  Level Jacksonville Center
04:17PM 33.3022 -80.3800 57° Northeast 538 619 35,000  Level Jacksonville Center
04:18PM 33.3928 -80.2158 57° Northeast 538 619 35,000 -60 Level Jacksonville Center
04:19PM 33.4731 -80.0664 57° Northeast 538 619 34,900 -60 Descending Jacksonville Center
04:20PM 33.5572 -79.9217 55° Northeast 533 613 34,900  Level Jacksonville Center
04:21PM 33.6717 -79.8131 38° Northeast 520 598 34,900  Level Jacksonville Center
04:22PM 33.7900 -79.7089 36° Northeast 520 598 35,000  Climbing Jacksonville Center
04:23PM 33.9061 -79.6047 37° Northeast 526 605 35,000  Level Jacksonville Center
04:24PM 34.0244 -79.5025 36° Northeast 526 605 35,000  Level Jacksonville Center
04:25PM 34.1244 -79.4133 36° Northeast 506 582 35,000  Level Jacksonville Center
04:27PM 34.3467 -79.2114 37° Northeast 533 613 35,000  Level Washington Center
04:28PM 34.4667 -79.1033 37° Northeast 540 621 35,000  Level Washington Center
04:29PM 34.5889 -78.9925 37° Northeast 540 621 35,000  Level Washington Center
04:30PM 34.7064 -78.8864 37° Northeast 540 621 35,000  Level Washington Center
04:31PM 34.8264 -78.7750 37° Northeast 540 621 35,000  Level Washington Center
04:32PM 34.9439 -78.6656 37° Northeast 540 621 35,000  Level Washington Center
04:33PM 35.0678 -78.5533 37° Northeast 540 621 35,000  Level Washington Center
04:34PM 35.1894 -78.4411 37° Northeast 540 621 35,000  Level Washington Center
04:35PM 35.3111 -78.3258 38° Northeast 540 621 35,000  Level Washington Center
04:36PM 35.4347 -78.2128 37° Northeast 545 627 35,000  Level Washington Center
04:37PM 35.5453 -78.1092 37° Northeast 552 635 35,000  Level Washington Center
04:38PM 35.6667 -77.9978 37° Northeast 542 624 35,000  Level Washington Center
04:39PM 35.7900 -77.8811 37° Northeast 547 629 35,000  Level Washington Center
04:40PM 35.9089 -77.7692 37° Northeast 547 629 35,000  Level Washington Center
04:41PM 36.0297 -77.6569 37° Northeast 547 629 35,000  Level Washington Center
04:42PM 36.1506 -77.5444 37° Northeast 547 629 35,000  Level Washington Center
04:43PM 36.2692 -77.4314 38° Northeast 542 624 35,000  Level Washington Center
04:44PM 36.3919 -77.3156 37° Northeast 542 624 35,000  Level Washington Center
04:45PM 36.5144 -77.2019 37° Northeast 547 629 35,000  Level Washington Center
04:46PM 36.6392 -77.0828 37° Northeast 554 638 35,000  Level Washington Center
04:47PM 36.7658 -76.9636 37° Northeast 564 649 35,000  Level Washington Center
04:48PM 36.8922 -76.8514 35° Northeast 564 649 35,000  Level Washington Center
04:49PM 37.0353 -76.7211 36° Northeast 559 643 35,000  Level Washington Center
04:50PM 37.1636 -76.6056 36° Northeast 565 650 35,000  Level Washington Center
04:51PM 37.2917 -76.4900 36° Northeast 570 656 35,000  Level Washington Center
04:52PM 37.4178 -76.3736 36° Northeast 570 656 35,000  Level Washington Center
04:53PM 37.5456 -76.2572 36° Northeast 570 656 35,000 -60 Level Washington Center
04:54PM 37.6714 -76.1481 34° Northeast 560 644 34,900  Descending Washington Center
04:55PM 37.7928 -76.0281 38° Northeast 554 638 35,000  Climbing Washington Center
04:56PM 37.9058 -75.9233 36° Northeast 554 638 35,000 -60 Level Washington Center
04:57PM 38.0206 -75.8211 35° Northeast 554 638 34,900  Descending Washington Center
04:58PM 38.1564 -75.6867 38° Northeast 554 638 35,000  Climbing Washington Center
04:59PM 38.2794 -75.5706 37° Northeast 549 632 35,000  Level Washington Center
05:00PM 38.4169 -75.4778 28° Northeast 554 638 35,000 -60 Level Washington Center
05:01PM 38.5628 -75.4192 17° North 545 627 34,900  Descending Washington Center
05:02PM 38.7128 -75.3522 19° North 552 635 35,000  Climbing Washington Center
05:03PM 38.8628 -75.2878 18° North 557 641 34,900  Descending Washington Center
05:04PM 38.9939 -75.1722 34° Northeast 557 641 35,000  Climbing Washington Center
05:05PM 39.1206 -75.0431 38° Northeast 576 663 35,000  Level Washington Center
05:06PM 39.2489 -74.9136 38° Northeast 576 663 35,000  Level Washington Center
05:07PM 39.3772 -74.7808 39° Northeast 582 670 35,000 -60 Level Washington Center
05:08PM 39.5036 -74.6528 38° Northeast 582 670 34,900 -180 Descending Washington Center
05:09PM 39.6953 -74.4561 38° Northeast 589 678 34,600 -1,380 Descending New York Center
05:10PM 39.8222 -74.3278 38° Northeast 589 678 31,500 -2,880 Descending New York Center
05:11PM 39.9514 -74.1936 39° Northeast 584 672 28,900 -2,700 Descending New York Center
05:12PM 40.0739 -74.0667 38° Northeast 579 666 26,300 -2,040 Descending New York Center
05:13PM 40.1919 -73.9419 39° Northeast 567 652 24,900 -660 Descending New York Center
05:14PM 40.3225 -73.8092 38° Northeast 547 629 25,000 -240 Climbing New York Center
05:17PM 40.5736 -73.5331 40° Northeast 555 639 24,200 -1,260 Descending Boston Center
05:18PM 40.7125 -73.3847 39° Northeast 550 633 20,800 -2,700 Descending Boston Center
05:19PM 40.8303 -73.2631 38° Northeast 519 597 18,900 -1,320 Descending Boston Center
05:20PM 40.9247 -73.1542 41° Northeast 481 554 18,200 -1,380 Descending Boston Center
05:21PM 41.0169 -73.0453 42° Northeast 454 522 16,200 -1,200 Descending Boston Center
05:22PM 41.1092 -72.9358 42° Northeast 443 510 15,900 -660 Descending Boston Center
05:22PM 41.1364 -72.9058 40° Northeast 439 505 15,400 -2,040 Descending Boston Center
05:23PM 41.1972 -72.8292 43° Northeast 438 504 13,900 -2,520 Descending Boston Center
05:23PM 41.2661 -72.7522 40° Northeast 417 480 11,600 -1,800 Descending Boston Center
05:25PM 41.3850 -72.7139 14° North 361 415 10,000 -840 Descending Boston Center
05:26PM 41.4789 -72.6867 12° North 325 374 9,800 -1,020 Descending Boston Center
05:26PM 41.5561 -72.6619 13° North 302 348 8,300 -1,560 Descending Boston Center
05:27PM 41.6228 -72.6400 14° North 277 319 7,000 -1,500 Descending Boston Center
05:28PM 41.6394 -72.6289 26° Northeast 280 322 6,500 -1,800 Descending Boston Center
05:28PM 41.6958 -72.6097 14° North 266 306 5,200 -1,800 Descending Boston Center
05:29PM 41.7189 -72.6097 360° North 262 302 4,700 -1,380 Descending Boston Center
05:29PM 41.7667 -72.6072 North 255 293 3,800 -1,200 Descending Boston Center
05:30PM 41.7833 -72.6072 360° North 255 293 3,500 -900 Descending Boston Center
05:30PM 41.8356 -72.6044 North 236 272 2,900 -600 Descending Boston Center
05:31PM 41.8564 -72.5989 11° North 243 280 2,900 -540 Level Boston Center
05:31PM 41.8939 -72.5936 North 199 229 2,400 -600 Descending Boston Center
05:32PM 41.9042 -72.5908 11° North 209 241 2,300 -600 Descending Boston Center
05:32PM 41.9417 -72.5908 360° North 169 194 1,800 -600 Descending Boston Center
05:33PM 41.9522 -72.5936 349° North 170 196 1,700 -660 Descending Boston Center
05:33PM 41.9667 -72.6189 308° West 140 161 1,200 -600 Descending Boston Center
05:34PM 41.9750 -72.6356 304° West 135 155 1,100 -720 Descending Boston Center
05:34PM 41.9564 -72.6633 228° Southwest 142 163 500 -840 Descending Boston Center
05:35PM 41.9564 -72.6661 270° West 109 125 300 -600 Descending Boston Center